Time;durP1;ratioP1;P1;durP2;ratioP2;P2;SDS_P1;SDS_P2;PMS_P1;PMS_P2;Temp;Humidity;BMP_temperature;BMP_pressure;BME280_temperature;BME280_humidity;BME280_pressure;Samples;Min_cycle;Max_cycle;Signal;HPM_P1;HPM_P2
2022/04/23 00:01:42;;;;;;;22.17;20.00;;;13.50;99.90;;;;;;5012880;28;20431;-68
2022/04/23 00:04:11;;;;;;;22.00;19.90;;;13.40;99.90;;;;;;5012267;28;20444;-68
2022/04/23 00:06:37;;;;;;;19.83;17.93;;;13.40;99.90;;;;;;5014733;28;20409;-68
2022/04/23 00:09:04;;;;;;;18.97;17.17;;;13.40;99.90;;;;;;5012510;28;20947;-67
2022/04/23 00:11:30;;;;;;;19.33;17.43;;;13.40;99.90;;;;;;5012838;28;20438;-70
2022/04/23 00:13:56;;;;;;;18.43;16.73;;;13.40;99.90;;;;;;5013635;28;20418;-68
2022/04/23 00:16:25;;;;;;;18.20;16.40;;;13.40;99.90;;;;;;5013658;28;20439;-68
2022/04/23 00:18:51;;;;;;;18.30;16.50;;;13.30;99.90;;;;;;5013154;28;20194;-73
2022/04/23 00:21:18;;;;;;;16.93;15.33;;;13.30;99.90;;;;;;5012633;28;20522;-69
2022/04/23 00:23:46;;;;;;;16.53;14.93;;;13.40;99.80;;;;;;5010330;28;20187;-68
2022/04/23 00:26:11;;;;;;;17.17;15.57;;;13.40;99.90;;;;;;5007854;28;20526;-72
2022/04/23 00:28:37;;;;;;;16.70;15.17;;;13.30;99.90;;;;;;5006475;28;20852;-69
2022/04/23 00:31:05;;;;;;;16.53;14.97;;;13.40;99.90;;;;;;5004332;28;20178;-68
2022/04/23 00:33:37;;;;;;;16.23;14.73;;;13.30;99.90;;;;;;5005976;28;20188;-68
2022/04/23 00:36:09;;;;;;;16.37;14.73;;;13.30;99.90;;;;;;5006501;28;20928;-70
2022/04/23 00:38:34;;;;;;;15.80;14.20;;;13.30;99.90;;;;;;5007796;28;20517;-68
2022/04/23 00:41:00;;;;;;;15.40;13.90;;;13.20;99.90;;;;;;5011488;28;20945;-68
2022/04/23 00:43:27;;;;;;;14.83;13.50;;;13.30;99.90;;;;;;5007784;28;20183;-68
2022/04/23 00:45:54;;;;;;;13.70;12.43;;;13.20;99.90;;;;;;5013236;28;20189;-73
2022/04/23 00:48:21;;;;;;;14.40;13.03;;;13.20;99.90;;;;;;5011127;28;20542;-68
2022/04/23 00:50:49;;;;;;;14.70;13.37;;;13.20;99.90;;;;;;5006256;28;20490;-68
2022/04/23 00:53:15;;;;;;;14.90;13.50;;;13.20;99.90;;;;;;5011463;28;20434;-68
2022/04/23 00:55:42;;;;;;;14.40;13.10;;;13.20;99.90;;;;;;5007501;28;20514;-68
2022/04/23 00:58:08;;;;;;;15.10;13.60;;;13.20;99.90;;;;;;5000412;28;20430;-68
2022/04/23 01:00:34;;;;;;;14.60;13.20;;;13.20;99.90;;;;;;5005472;28;20483;-68
2022/04/23 01:03:00;;;;;;;14.17;12.77;;;13.20;99.90;;;;;;5011337;28;20639;-69
2022/04/23 01:05:26;;;;;;;14.23;12.73;;;13.10;99.90;;;;;;5012070;28;20498;-69
2022/04/23 01:07:53;;;;;;;15.13;13.63;;;13.10;99.90;;;;;;5013247;28;20691;-68
2022/04/23 01:10:19;;;;;;;16.63;15.03;;;13.10;99.90;;;;;;5011627;28;20222;-68
2022/04/23 01:12:45;;;;;;;15.43;13.87;;;13.10;99.90;;;;;;5011616;28;20430;-68
2022/04/23 01:15:13;;;;;;;16.40;14.83;;;13.10;99.90;;;;;;5011726;28;20961;-68
2022/04/23 01:17:40;;;;;;;15.73;14.20;;;13.10;99.90;;;;;;5010963;28;20450;-68
2022/04/23 01:20:13;;;;;;;17.87;15.30;;;13.10;99.90;;;;;;5011084;28;20446;-69
2022/04/23 01:22:41;;;;;;;15.97;14.27;;;13.10;99.90;;;;;;5011014;28;20759;-68
2022/04/23 01:25:10;;;;;;;16.33;14.73;;;13.10;99.90;;;;;;5011016;28;20495;-71
2022/04/23 01:27:37;;;;;;;16.40;14.80;;;13.10;99.90;;;;;;4995561;28;20524;-68
2022/04/23 01:30:04;;;;;;;16.90;15.10;;;13.20;99.90;;;;;;5010994;28;20885;-69
2022/04/23 01:32:30;;;;;;;16.30;14.70;;;13.20;99.90;;;;;;5009524;28;20464;-68
2022/04/23 01:34:56;;;;;;;17.30;15.57;;;13.20;99.90;;;;;;5010148;28;20472;-73
2022/04/23 01:37:22;;;;;;;18.40;16.50;;;13.10;99.90;;;;;;5012488;28;20194;-68
2022/04/23 01:39:48;;;;;;;17.17;15.53;;;13.10;99.90;;;;;;5011391;28;20673;-68
2022/04/23 01:42:17;;;;;;;17.83;15.97;;;13.10;99.90;;;;;;5011005;28;20212;-68
2022/04/23 01:44:44;;;;;;;19.60;17.47;;;13.10;99.90;;;;;;5010170;28;20941;-69
2022/04/23 01:47:10;;;;;;;19.33;17.43;;;13.10;99.90;;;;;;5011638;28;20473;-68
2022/04/23 01:49:36;;;;;;;21.73;19.37;;;13.10;99.90;;;;;;5010822;28;20476;-68
2022/04/23 01:52:01;;;;;;;21.00;17.60;;;13.10;99.90;;;;;;5010732;28;20257;-69
2022/04/23 01:54:27;;;;;;;21.67;19.40;;;13.10;99.90;;;;;;5012762;28;20187;-68
2022/04/23 01:56:57;;;;;;;22.97;20.60;;;13.10;99.90;;;;;;5011464;28;20313;-69
2022/04/23 01:59:23;;;;;;;20.87;18.77;;;13.20;99.90;;;;;;5011690;28;20198;-68
2022/04/23 02:01:49;;;;;;;21.90;19.80;;;13.10;99.90;;;;;;5011841;28;20800;-68
2022/04/23 02:04:15;;;;;;;23.33;20.83;;;13.10;99.90;;;;;;5010293;28;20184;-68
2022/04/23 02:06:40;;;;;;;23.77;21.30;;;13.10;99.90;;;;;;5011745;28;20429;-68
2022/04/23 02:09:06;;;;;;;23.30;20.77;;;13.10;99.90;;;;;;5010809;28;20217;-69
2022/04/23 02:11:32;;;;;;;24.87;21.00;;;13.10;99.90;;;;;;5010860;28;20509;-68
2022/04/23 02:13:58;;;;;;;23.50;21.00;;;13.10;99.90;;;;;;5012258;28;20181;-74
2022/04/23 02:16:25;;;;;;;25.07;22.50;;;13.10;99.90;;;;;;5005976;28;20189;-68
2022/04/23 02:18:50;;;;;;;25.33;22.67;;;13.10;99.90;;;;;;5003612;28;20439;-68
2022/04/23 02:21:16;;;;;;;26.57;22.80;;;13.00;99.90;;;;;;5008582;28;20445;-68
2022/04/23 02:23:43;;;;;;;26.50;23.70;;;13.00;99.90;;;;;;5012091;28;20172;-68
2022/04/23 02:26:10;;;;;;;25.90;23.10;;;12.90;99.90;;;;;;5009047;28;20926;-68
2022/04/23 02:28:38;;;;;;;26.93;24.03;;;12.80;99.90;;;;;;5010961;28;20948;-68
2022/04/23 02:31:05;;;;;;;26.73;23.93;;;12.50;99.90;;;;;;5010040;28;20453;-69
2022/04/23 02:33:31;;;;;;;26.00;22.90;;;12.40;99.90;;;;;;5010975;28;20446;-68
2022/04/23 02:35:57;;;;;;;25.93;23.23;;;12.40;99.90;;;;;;5010437;28;20434;-68
2022/04/23 02:38:23;;;;;;;26.13;23.33;;;12.30;99.90;;;;;;5011193;28;20182;-68
2022/04/23 02:40:48;;;;;;;26.40;23.33;;;12.20;99.90;;;;;;5011318;28;20267;-68
2022/04/23 02:43:14;;;;;;;27.57;24.63;;;12.30;99.90;;;;;;5010951;28;20187;-68
2022/04/23 02:45:41;;;;;;;29.73;24.90;;;12.30;99.90;;;;;;5015351;28;20194;-68
2022/04/23 02:48:11;;;;;;;28.77;24.97;;;12.40;99.90;;;;;;5013343;28;20223;-68
2022/04/23 02:50:38;;;;;;;26.93;24.03;;;12.30;99.90;;;;;;5014532;28;20635;-68
2022/04/23 02:53:05;;;;;;;27.50;24.30;;;12.30;99.90;;;;;;5014804;28;20422;-74
2022/04/23 02:55:32;;;;;;;28.10;24.07;;;12.40;99.90;;;;;;5014883;28;20432;-68
2022/04/23 02:58:02;;;;;;;28.80;25.93;;;12.50;99.90;;;;;;5015041;28;20443;-68
2022/04/23 03:00:29;;;;;;;28.33;24.03;;;12.60;99.90;;;;;;5013133;28;20970;-69
2022/04/23 03:02:55;;;;;;;29.40;24.50;;;12.70;99.90;;;;;;5033292;28;20488;-68
2022/04/23 03:05:21;;;;;;;30.23;26.23;;;12.60;99.90;;;;;;5011664;28;20492;-70
2022/04/23 03:07:48;;;;;;;28.23;25.23;;;12.50;99.90;;;;;;5008982;28;20433;-69
2022/04/23 03:10:15;;;;;;;28.10;24.93;;;12.60;99.90;;;;;;5013743;28;20496;-68
2022/04/23 03:12:42;;;;;;;26.83;24.03;;;12.70;99.90;;;;;;5013130;28;20443;-68
2022/04/23 03:15:10;;;;;;;25.90;23.10;;;12.70;99.90;;;;;;5012558;28;20440;-70
2022/04/23 03:17:36;;;;;;;26.80;24.00;;;12.70;99.90;;;;;;5005830;28;20445;-70
2022/04/23 03:20:04;;;;;;;26.50;23.60;;;12.90;99.90;;;;;;5013241;28;20467;-71
2022/04/23 03:22:29;;;;;;;25.10;22.63;;;12.80;99.90;;;;;;5012867;28;20444;-69
2022/04/23 03:24:55;;;;;;;26.13;23.30;;;12.80;99.90;;;;;;5014648;28;20425;-69
2022/04/23 03:27:21;;;;;;;26.67;23.90;;;12.90;99.90;;;;;;5013014;28;20189;-69
2022/04/23 03:29:47;;;;;;;28.20;23.20;;;12.90;99.90;;;;;;5013357;28;20649;-69
2022/04/23 03:32:13;;;;;;;26.83;23.70;;;12.90;99.90;;;;;;5012493;28;20427;-69
2022/04/23 03:34:39;;;;;;;26.20;22.47;;;12.90;99.90;;;;;;5013240;28;20184;-69
2022/04/23 03:37:05;;;;;;;23.63;20.93;;;12.90;99.90;;;;;;5013285;28;20461;-74
2022/04/23 03:39:32;;;;;;;22.97;20.57;;;13.00;99.90;;;;;;5011157;28;20605;-68
2022/04/23 03:42:01;;;;;;;24.43;21.23;;;13.10;99.90;;;;;;5013981;28;20428;-68
2022/04/23 03:44:26;;;;;;;27.33;24.43;;;13.10;99.90;;;;;;5012151;28;21012;-68
2022/04/23 03:46:52;;;;;;;27.13;24.30;;;12.90;99.90;;;;;;5012983;28;20514;-67
2022/04/23 03:49:18;;;;;;;26.83;24.03;;;13.00;99.90;;;;;;5012794;28;20236;-68
2022/04/23 03:51:44;;;;;;;29.67;25.80;;;13.00;99.90;;;;;;5013055;28;20211;-68
2022/04/23 03:54:10;;;;;;;26.33;23.63;;;13.00;99.90;;;;;;5010115;28;20180;-68
2022/04/23 03:56:35;;;;;;;28.23;25.13;;;13.00;99.90;;;;;;5014799;28;20179;-68
2022/04/23 03:59:01;;;;;;;30.13;25.97;;;13.00;99.90;;;;;;5006744;28;20977;-68
2022/04/23 04:01:28;;;;;;;28.57;25.57;;;13.00;99.90;;;;;;5011014;28;20202;-68
2022/04/23 04:03:54;;;;;;;30.43;25.40;;;13.00;99.90;;;;;;5010015;28;20207;-68
2022/04/23 04:06:19;;;;;;;28.77;25.80;;;12.90;99.90;;;;;;5011206;28;20440;-68
2022/04/23 04:08:50;;;;;;;29.03;25.77;;;13.00;99.90;;;;;;5014591;28;20338;-68
2022/04/23 04:11:16;;;;;;;27.97;24.90;;;13.00;99.90;;;;;;5012210;28;20190;-68
2022/04/23 04:13:42;;;;;;;30.40;25.57;;;13.10;99.90;;;;;;5009785;28;20430;-68
2022/04/23 04:16:08;;;;;;;32.57;27.10;;;13.10;99.90;;;;;;5013024;28;20428;-75
2022/04/23 04:18:34;;;;;;;28.43;25.10;;;13.00;99.90;;;;;;5011995;28;20465;-68
2022/04/23 04:20:59;;;;;;;29.23;26.03;;;13.00;99.90;;;;;;5012606;28;20206;-67
2022/04/23 04:23:26;;;;;;;28.20;25.20;;;12.90;99.90;;;;;;5011286;28;20494;-68
2022/04/23 04:25:52;;;;;;;29.53;26.33;;;12.90;99.90;;;;;;5010837;28;20271;-69
2022/04/23 04:28:18;;;;;;;31.40;26.67;;;12.90;99.90;;;;;;5010562;28;20561;-68
2022/04/23 04:33:28;;;;;;;30.70;27.47;;;12.90;99.90;;;;;;5010132;28;20901;-68
2022/04/23 04:35:53;;;;;;;31.23;27.87;;;12.90;99.90;;;;;;5017888;28;20577;-68
2022/04/23 04:38:19;;;;;;;30.70;27.13;;;13.00;99.90;;;;;;5013388;28;20180;-68
2022/04/23 04:40:46;;;;;;;31.13;27.70;;;13.00;99.90;;;;;;5011586;28;20184;-67
2022/04/23 04:43:12;;;;;;;35.27;28.33;;;13.00;99.90;;;;;;4992738;28;20189;-70
2022/04/23 04:45:37;;;;;;;29.70;26.60;;;13.00;99.90;;;;;;5011250;28;20422;-68
2022/04/23 04:48:05;;;;;;;30.17;26.97;;;13.00;99.90;;;;;;5011555;28;20311;-68
2022/04/23 04:50:31;;;;;;;31.00;27.20;;;13.00;99.90;;;;;;5012161;28;20208;-68
2022/04/23 04:52:58;;;;;;;30.00;26.80;;;13.00;99.90;;;;;;5011012;28;20572;-69
2022/04/23 04:55:24;;;;;;;29.87;26.80;;;13.20;99.90;;;;;;5012036;28;20973;-67
2022/04/23 04:57:49;;;;;;;30.73;27.43;;;13.10;99.90;;;;;;5011285;28;20518;-67
2022/04/23 05:00:18;;;;;;;31.57;28.27;;;13.10;99.90;;;;;;5010646;28;20437;-68
2022/04/23 05:02:44;;;;;;;32.93;27.90;;;13.20;99.90;;;;;;5011274;28;20177;-67
2022/04/23 05:05:10;;;;;;;42.30;33.77;;;13.20;99.90;;;;;;5011112;28;20677;-73
2022/04/23 05:07:36;;;;;;;31.23;27.70;;;13.20;99.90;;;;;;5008012;28;20436;-67
2022/04/23 05:10:03;;;;;;;31.10;26.90;;;13.20;99.90;;;;;;5003239;28;20473;-67
2022/04/23 05:12:29;;;;;;;31.50;26.93;;;13.30;99.90;;;;;;5011280;28;20189;-67
2022/04/23 05:14:54;;;;;;;42.50;34.60;;;13.30;99.90;;;;;;5010900;28;20421;-68
2022/04/23 05:17:20;;;;;;;32.80;29.03;;;13.30;99.90;;;;;;5011822;28;20444;-67
2022/04/23 05:19:46;;;;;;;31.07;27.37;;;13.40;99.90;;;;;;5011366;28;20232;-68
2022/04/23 05:22:12;;;;;;;31.40;27.70;;;13.40;99.90;;;;;;5009333;28;20599;-73
2022/04/23 05:24:37;;;;;;;30.73;25.43;;;13.30;99.90;;;;;;5012831;28;20258;-67
2022/04/23 05:27:03;;;;;;;29.10;26.00;;;13.40;99.90;;;;;;5011035;28;20202;-68
2022/04/23 05:29:29;;;;;;;30.27;26.80;;;13.30;99.90;;;;;;5011252;28;20216;-68
2022/04/23 05:31:55;;;;;;;30.13;26.90;;;13.30;99.90;;;;;;5010434;28;20429;-67
2022/04/23 05:34:20;;;;;;;30.70;27.40;;;13.40;99.90;;;;;;5010315;28;20180;-68
2022/04/23 05:36:46;;;;;;;33.33;29.17;;;13.30;99.90;;;;;;5012357;28;20189;-67
2022/04/23 05:39:12;;;;;;;31.23;27.93;;;13.40;99.90;;;;;;5010880;28;20209;-74
2022/04/23 05:41:37;;;;;;;32.20;28.77;;;13.30;99.90;;;;;;5011439;28;20212;-67
2022/04/23 05:44:03;;;;;;;31.57;28.27;;;13.30;99.90;;;;;;5009535;28;20217;-68
2022/04/23 05:46:29;;;;;;;33.87;29.30;;;13.30;99.90;;;;;;5001515;28;20183;-67
2022/04/23 05:48:55;;;;;;;30.43;27.10;;;13.40;99.90;;;;;;5010051;28;20229;-70
2022/04/23 05:51:23;;;;;;;30.40;27.00;;;13.30;99.90;;;;;;5010104;28;20189;-69
2022/04/23 05:53:49;;;;;;;31.67;28.37;;;13.40;99.90;;;;;;5009290;28;20432;-69
2022/04/23 05:56:15;;;;;;;31.13;27.47;;;13.40;99.90;;;;;;5011149;28;20438;-72
2022/04/23 05:58:40;;;;;;;30.63;27.17;;;13.50;99.90;;;;;;5010184;28;20183;-69
2022/04/23 06:01:06;;;;;;;31.70;27.83;;;13.50;99.90;;;;;;5009364;28;20257;-70
2022/04/23 06:03:32;;;;;;;31.87;28.40;;;13.60;99.90;;;;;;5010636;28;20403;-69
2022/04/23 06:05:58;;;;;;;30.03;26.80;;;13.50;99.90;;;;;;5010049;28;20186;-69
2022/04/23 06:08:23;;;;;;;30.37;26.93;;;13.50;99.90;;;;;;5009613;28;20213;-70
2022/04/23 06:10:49;;;;;;;31.67;28.27;;;13.50;99.90;;;;;;5010527;28;20213;-71
2022/04/23 06:13:15;;;;;;;34.70;29.00;;;13.60;99.90;;;;;;5009407;28;20243;-72
2022/04/23 06:15:42;;;;;;;31.07;27.73;;;13.70;99.90;;;;;;5008790;28;20190;-70
2022/04/23 06:18:07;;;;;;;30.93;27.63;;;13.70;99.90;;;;;;5007692;28;20452;-70
2022/04/23 06:20:33;;;;;;;30.67;27.37;;;13.70;99.90;;;;;;5008902;28;21057;-70
2022/04/23 06:22:59;;;;;;;30.63;27.37;;;13.60;99.90;;;;;;5000921;28;20188;-70
2022/04/23 06:25:25;;;;;;;30.53;27.27;;;13.60;99.90;;;;;;5008419;28;20185;-70
2022/04/23 06:27:50;;;;;;;33.27;29.67;;;13.70;99.90;;;;;;5017952;28;20238;-70
2022/04/23 06:30:16;;;;;;;33.03;29.20;;;13.60;99.90;;;;;;5009002;28;20293;-71
2022/04/23 06:32:42;;;;;;;31.30;27.90;;;13.60;99.90;;;;;;5011920;28;20177;-70
2022/04/23 06:35:09;;;;;;;31.13;27.87;;;13.60;99.90;;;;;;5010378;28;20189;-70
2022/04/23 06:37:41;;;;;;;31.37;28.00;;;13.60;99.90;;;;;;5009209;28;20428;-70
2022/04/23 06:40:10;;;;;;;33.10;28.27;;;13.70;99.90;;;;;;5011882;28;20434;-70
2022/04/23 06:42:36;;;;;;;33.00;29.50;;;13.80;99.90;;;;;;5009381;28;21388;-70
2022/04/23 06:45:03;;;;;;;31.03;27.70;;;13.80;99.90;;;;;;5010845;28;20519;-70
2022/04/23 06:47:28;;;;;;;35.33;29.73;;;13.90;99.90;;;;;;5010129;28;20437;-72
2022/04/23 06:49:59;;;;;;;32.33;28.67;;;13.90;99.90;;;;;;5010623;28;20484;-70
2022/04/23 06:52:28;;;;;;;30.50;27.13;;;14.00;99.90;;;;;;5008861;28;20206;-70
2022/04/23 06:54:54;;;;;;;30.20;26.90;;;14.10;99.90;;;;;;5008427;28;20563;-71
2022/04/23 06:57:26;;;;;;;32.63;29.03;;;14.20;99.90;;;;;;5010025;28;20444;-71
2022/04/23 06:59:52;;;;;;;31.03;27.17;;;14.20;99.90;;;;;;5019091;28;20469;-69
2022/04/23 07:02:19;;;;;;;32.70;27.47;;;14.20;99.90;;;;;;5010406;28;20494;-71
2022/04/23 07:04:45;;;;;;;30.10;26.60;;;14.30;99.90;;;;;;5009877;28;20419;-70
2022/04/23 07:07:11;;;;;;;32.30;27.13;;;14.30;99.90;;;;;;5014170;28;20437;-69
2022/04/23 07:09:37;;;;;;;31.47;28.00;;;14.40;99.90;;;;;;5007968;28;20699;-69
2022/04/23 07:12:07;;;;;;;30.30;26.33;;;14.50;99.90;;;;;;5010462;28;20423;-68
2022/04/23 07:14:32;;;;;;;31.50;28.20;;;14.60;99.90;;;;;;5008895;28;20948;-68
2022/04/23 07:16:59;;;;;;;31.70;28.23;;;14.70;99.90;;;;;;5010521;28;20430;-68
2022/04/23 07:19:25;;;;;;;29.90;26.73;;;14.80;99.90;;;;;;5010714;28;20596;-68
2022/04/23 07:21:51;;;;;;;28.93;25.20;;;14.90;99.90;;;;;;5010503;28;20430;-69
2022/04/23 07:24:16;;;;;;;25.83;23.03;;;14.90;98.60;;;;;;5010264;28;20962;-74
2022/04/23 07:26:42;;;;;;;27.43;23.40;;;15.00;98.30;;;;;;5008811;28;20194;-67
2022/04/23 07:29:10;;;;;;;24.97;22.37;;;15.00;97.80;;;;;;5006580;28;20173;-67
2022/04/23 07:31:37;;;;;;;25.33;22.60;;;15.10;97.70;;;;;;5013517;28;20270;-67
2022/04/23 07:39:34;;;;;;;24.43;21.97;;;15.10;95.70;;;;;;5004903;28;20447;-68
2022/04/23 07:41:59;;;;;;;22.80;20.30;;;15.30;95.90;;;;;;5010766;28;20916;-68
2022/04/23 07:44:25;;;;;;;24.73;21.50;;;15.40;95.90;;;;;;5012770;28;20486;-67
2022/04/23 07:46:51;;;;;;;21.50;19.23;;;15.50;94.90;;;;;;5009135;28;20181;-68
2022/04/23 07:49:18;;;;;;;21.80;19.60;;;15.50;94.50;;;;;;5016309;28;20237;-76
2022/04/23 07:51:49;;;;;;;20.10;17.63;;;15.70;95.40;;;;;;5013118;28;20428;-68
2022/04/23 07:54:15;;;;;;;22.20;19.20;;;15.80;96.70;;;;;;5014063;28;20440;-68
2022/04/23 07:56:41;;;;;;;18.90;17.00;;;15.70;93.30;;;;;;5009737;28;20426;-67
2022/04/23 07:59:07;;;;;;;18.53;16.73;;;15.60;93.10;;;;;;5011712;28;20535;-68
2022/04/23 08:01:33;;;;;;;18.57;16.73;;;15.70;93.60;;;;;;5011593;28;20855;-68
2022/04/23 08:04:02;;;;;;;19.07;16.97;;;15.80;92.50;;;;;;5011240;28;20210;-70
2022/04/23 08:06:28;;;;;;;20.10;18.10;;;15.90;92.60;;;;;;5011020;28;20634;-70
2022/04/23 08:08:53;;;;;;;18.97;17.10;;;15.80;91.40;;;;;;5012076;28;20452;-71
2022/04/23 08:11:22;;;;;;;20.00;17.80;;;15.80;91.60;;;;;;5011161;28;20231;-70
2022/04/23 08:13:50;;;;;;;20.17;18.00;;;15.90;92.00;;;;;;5012299;28;20265;-71
2022/04/23 08:16:16;;;;;;;18.60;16.67;;;15.90;91.20;;;;;;5012277;28;20437;-69
2022/04/23 08:18:41;;;;;;;19.50;17.50;;;16.10;91.10;;;;;;5010388;28;20807;-68
2022/04/23 08:21:07;;;;;;;19.73;17.80;;;16.20;91.30;;;;;;5013194;28;20441;-69
2022/04/23 08:23:33;;;;;;;19.30;17.17;;;16.20;91.00;;;;;;5012218;28;20178;-68
2022/04/23 08:26:00;;;;;;;17.70;15.90;;;16.40;91.00;;;;;;5012915;28;20191;-69
2022/04/23 08:31:12;;;;;;;18.83;17.03;;;16.70;90.20;;;;;;5012147;28;20454;-70
2022/04/23 08:36:22;;;;;;;17.47;15.50;;;16.90;88.40;;;;;;5006279;28;20461;-73
2022/04/23 08:38:49;;;;;;;18.20;16.30;;;17.00;88.60;;;;;;5011607;28;20497;-70
2022/04/23 08:41:14;;;;;;;19.73;17.83;;;17.00;86.80;;;;;;5012889;28;20205;-69
2022/04/23 08:43:41;;;;;;;18.87;16.97;;;16.60;85.90;;;;;;5010291;28;20464;-69
2022/04/23 08:46:08;;;;;;;18.17;16.47;;;16.60;87.60;;;;;;5012348;28;20197;-70
2022/04/23 08:48:49;;;;;;;21.23;19.13;;;16.70;87.60;;;;;;5010939;28;21003;-69
2022/04/23 08:51:20;;;;;;;19.73;17.63;;;16.80;89.30;;;;;;5011283;28;20842;-70
2022/04/23 08:53:47;;;;;;;20.47;18.40;;;17.00;86.80;;;;;;5009427;28;20449;-70
2022/04/23 08:56:13;;;;;;;18.93;17.13;;;17.00;87.20;;;;;;5013188;28;20426;-71
2022/04/23 08:58:42;;;;;;;23.53;20.33;;;17.20;88.00;;;;;;5008800;28;20754;-72
2022/04/23 09:01:07;;;;;;;89.03;63.27;;;17.50;92.50;;;;;;5012135;28;20253;-70
2022/04/23 09:03:33;;;;;;;61.77;52.50;;;17.70;89.00;;;;;;5010600;28;20433;-69
2022/04/23 09:05:59;;;;;;;32.77;29.40;;;17.70;87.60;;;;;;5008291;28;20175;-68
2022/04/23 09:08:29;;;;;;;80.40;57.87;;;17.90;85.70;;;;;;5008176;28;20228;-74
2022/04/23 09:10:55;;;;;;;18.63;16.73;;;18.10;85.80;;;;;;5007729;28;20663;-68
2022/04/23 09:13:31;;;;;;;18.57;16.87;;;18.00;82.40;;;;;;5010467;28;20426;-67
2022/04/23 09:24:48;;;;;;;18.67;16.97;;;17.90;83.10;;;;;;5010455;28;20905;-69
2022/04/23 09:27:16;;;;;;;14.87;13.37;;;17.90;83.90;;;;;;5010210;28;20429;-69
2022/04/23 09:29:58;;;;;;;15.63;14.13;;;17.90;80.10;;;;;;5005534;28;20466;-69
2022/04/23 09:32:23;;;;;;;14.77;13.47;;;17.60;79.00;;;;;;5009879;28;20441;-74
2022/04/23 09:35:10;;;;;;;14.57;13.17;;;17.40;80.00;;;;;;5012357;28;20480;-70
2022/04/23 09:40:25;;;;;;;14.80;13.40;;;17.20;80.00;;;;;;5009655;28;20463;-70
2022/04/23 09:43:11;;;;;;;14.13;12.73;;;17.10;80.60;;;;;;5009543;28;20505;-70
2022/04/23 09:45:43;;;;;;;14.70;13.30;;;17.00;81.10;;;;;;5009777;28;20422;-70
2022/04/23 09:48:12;;;;;;;15.57;13.97;;;17.00;81.10;;;;;;5012263;28;20620;-68
2022/04/23 09:50:39;;;;;;;16.23;14.67;;;17.00;81.60;;;;;;5008724;28;20476;-68
2022/04/23 09:53:13;;;;;;;14.90;13.40;;;17.10;83.90;;;;;;5004146;28;20438;-67
2022/04/23 09:55:39;;;;;;;15.50;14.00;;;17.00;83.10;;;;;;5009874;28;20422;-67
2022/04/23 09:58:09;;;;;;;14.50;13.10;;;17.00;83.00;;;;;;5009187;28;20449;-68
2022/04/23 10:00:37;;;;;;;14.47;12.97;;;17.20;83.50;;;;;;5009571;28;20461;-65
2022/04/23 10:03:08;;;;;;;16.07;14.40;;;17.30;81.80;;;;;;5010393;28;20457;-66
2022/04/23 10:05:42;;;;;;;16.10;14.03;;;17.10;81.60;;;;;;5008810;28;20414;-66
2022/04/23 10:08:13;;;;;;;16.33;14.63;;;16.90;90.50;;;;;;5010392;28;20784;-69
2022/04/23 10:10:56;;;;;;;15.40;13.90;;;17.00;81.60;;;;;;5003362;28;20507;-69
2022/04/23 10:13:25;;;;;;;15.73;14.07;;;17.00;82.60;;;;;;4994455;28;20430;-69
2022/04/23 10:15:54;;;;;;;15.37;13.80;;;17.00;82.10;;;;;;4981587;28;20442;-70
2022/04/23 10:18:20;;;;;;;16.30;14.50;;;17.10;83.50;;;;;;5004248;28;20438;-69
2022/04/23 10:20:55;;;;;;;17.03;14.80;;;17.10;81.50;;;;;;5010619;28;20523;-69
2022/04/23 10:23:50;;;;;;;17.50;15.57;;;17.10;82.70;;;;;;5011168;28;20484;-70
2022/04/23 10:26:42;;;;;;;16.97;15.20;;;17.00;82.30;;;;;;5008150;28;20984;-69
2022/04/23 10:29:16;;;;;;;16.20;14.50;;;17.00;84.00;;;;;;5010830;28;20965;-69
2022/04/23 10:31:42;;;;;;;17.03;15.23;;;17.10;84.70;;;;;;5002825;28;20513;-69
2022/04/23 10:34:33;;;;;;;16.50;14.80;;;17.20;83.00;;;;;;5009359;28;20430;-68
2022/04/23 10:37:29;;;;;;;17.97;15.73;;;17.10;83.10;;;;;;5010976;28;20425;-68
2022/04/23 10:39:55;;;;;;;17.43;14.73;;;17.00;82.40;;;;;;5011663;28;20472;-68
2022/04/23 10:42:25;;;;;;;15.90;14.17;;;17.00;83.40;;;;;;5010636;28;20430;-68
2022/04/23 10:44:54;;;;;;;19.87;16.83;;;17.10;83.50;;;;;;5006476;28;20729;-68
2022/04/23 10:47:39;;;;;;;17.93;16.03;;;16.80;82.40;;;;;;5010743;28;20592;-69
2022/04/23 10:50:22;;;;;;;17.70;15.83;;;17.00;85.60;;;;;;4993816;28;20957;-68
2022/04/23 10:52:50;;;;;;;19.37;16.37;;;17.10;83.60;;;;;;5009942;28;20426;-68
2022/04/23 10:55:16;;;;;;;18.70;15.47;;;17.10;81.60;;;;;;5011495;28;20765;-69
2022/04/23 10:57:51;;;;;;;17.37;15.57;;;17.20;83.00;;;;;;5011133;28;20432;-68
2022/04/23 11:00:21;;;;;;;19.80;17.43;;;17.30;81.40;;;;;;5011577;28;20437;-68
2022/04/23 11:03:05;;;;;;;17.60;15.73;;;17.30;81.40;;;;;;5011089;28;20460;-68
2022/04/23 11:13:56;;;;;;;15.93;14.23;;;17.50;79.00;;;;;;5014886;28;20893;-68
2022/04/23 11:16:24;;;;;;;15.83;14.20;;;17.90;77.80;;;;;;5015345;28;20426;-68
2022/04/23 11:18:52;;;;;;;17.30;15.40;;;18.20;77.40;;;;;;5014238;28;20437;-68
2022/04/23 11:21:23;;;;;;;18.20;15.43;;;18.30;75.90;;;;;;5015418;28;20414;-68
2022/04/23 11:23:50;;;;;;;17.10;15.30;;;18.10;75.20;;;;;;4996593;28;20512;-68
2022/04/23 11:26:18;;;;;;;19.73;14.80;;;18.20;75.30;;;;;;5014035;28;20426;-68
2022/04/23 11:28:47;;;;;;;16.10;14.40;;;18.30;77.10;;;;;;5014179;28;20763;-68
2022/04/23 11:31:17;;;;;;;17.90;15.43;;;18.20;74.30;;;;;;5014046;28;20458;-68
2022/04/23 11:33:54;;;;;;;16.70;15.00;;;18.10;73.50;;;;;;5014133;28;20892;-68
2022/04/23 11:36:33;;;;;;;15.77;14.17;;;17.90;74.80;;;;;;5015208;28;20440;-68
2022/04/23 11:39:03;;;;;;;15.70;14.10;;;17.90;74.40;;;;;;5014671;28;20422;-68
2022/04/23 11:41:42;;;;;;;17.30;15.40;;;17.80;74.40;;;;;;5014097;28;20434;-68
2022/04/23 11:44:12;;;;;;;16.37;14.07;;;17.90;76.20;;;;;;5014773;28;20438;-69
2022/04/23 11:46:42;;;;;;;15.37;13.77;;;18.00;74.70;;;;;;5011162;28;20434;-68
2022/04/23 11:49:08;;;;;;;15.97;14.20;;;18.00;76.00;;;;;;5014423;28;20512;-68
2022/04/23 11:51:34;;;;;;;17.80;15.10;;;18.20;74.40;;;;;;5014378;28;20820;-73
2022/04/23 11:54:00;;;;;;;16.30;14.43;;;18.10;75.10;;;;;;5013613;28;20187;-68
2022/04/23 11:56:32;;;;;;;16.40;14.67;;;18.20;74.50;;;;;;5013349;28;20175;-68
2022/04/23 11:59:09;;;;;;;17.07;15.37;;;18.10;73.60;;;;;;5014671;28;20418;-68
2022/04/23 12:01:38;;;;;;;17.57;14.90;;;18.00;74.30;;;;;;5013623;28;20509;-73
2022/04/23 12:04:04;;;;;;;15.63;14.10;;;18.00;74.70;;;;;;5014057;28;20430;-68
2022/04/23 12:06:44;;;;;;;16.93;15.13;;;17.90;75.30;;;;;;5015119;28;20835;-68
2022/04/23 12:09:11;;;;;;;19.83;17.03;;;18.00;77.20;;;;;;5014396;28;20519;-68
2022/04/23 12:11:37;;;;;;;17.90;15.37;;;17.90;75.50;;;;;;5013416;28;20441;-68
2022/04/23 12:14:04;;;;;;;20.10;16.90;;;17.90;76.70;;;;;;5012331;28;20437;-68
2022/04/23 12:16:33;;;;;;;16.57;14.77;;;17.90;76.70;;;;;;5013506;28;20645;-68
2022/04/23 12:19:04;;;;;;;16.73;14.30;;;18.00;78.00;;;;;;5014290;28;20492;-68
2022/04/23 12:21:30;;;;;;;16.93;15.20;;;18.00;75.20;;;;;;5013844;28;20463;-68
2022/04/23 12:23:56;;;;;;;17.27;15.47;;;17.60;74.20;;;;;;5013464;28;20414;-68
2022/04/23 12:26:23;;;;;;;16.00;14.30;;;17.50;75.30;;;;;;5013908;28;20430;-68
2022/04/23 12:42:23;;;;;;;16.00;14.50;;;17.50;76.60;;;;;;5013650;28;20425;-68
2022/04/23 12:44:51;;;;;;;14.77;13.27;;;17.70;76.70;;;;;;5013070;28;20418;-68
2022/04/23 12:47:26;;;;;;;13.60;12.30;;;17.60;74.80;;;;;;5012469;28;20183;-68
2022/04/23 12:49:58;;;;;;;16.80;13.93;;;17.70;74.50;;;;;;5011170;28;21032;-68
2022/04/23 12:52:38;;;;;;;15.77;14.27;;;17.70;75.60;;;;;;5013643;28;20530;-68
2022/04/23 12:55:32;;;;;;;15.97;14.43;;;17.80;74.30;;;;;;5011881;28;20822;-68
2022/04/23 12:58:00;;;;;;;15.60;14.10;;;17.70;73.50;;;;;;5012521;28;20488;-68
2022/04/23 13:00:27;;;;;;;15.63;14.10;;;17.60;73.60;;;;;;5013348;28;20971;-68
2022/04/23 13:02:58;;;;;;;16.47;14.80;;;17.50;73.30;;;;;;5011699;28;20430;-69
2022/04/23 13:05:25;;;;;;;16.27;14.80;;;17.40;73.90;;;;;;5013152;28;20422;-68
2022/04/23 13:10:35;;;;;;;15.20;13.50;;;17.50;73.70;;;;;;5013023;28;20562;-73
2022/04/23 13:13:02;;;;;;;16.63;15.10;;;17.40;74.10;;;;;;5013122;28;20494;-68
2022/04/23 13:15:29;;;;;;;16.53;14.93;;;17.40;73.60;;;;;;5011920;28;20525;-68
2022/04/23 13:17:55;;;;;;;17.00;15.20;;;17.30;73.80;;;;;;5012407;28;20473;-68
2022/04/23 13:20:21;;;;;;;14.93;13.27;;;17.30;73.60;;;;;;5011890;28;20442;-68
2022/04/23 13:22:48;;;;;;;19.07;13.73;;;17.30;74.40;;;;;;5012211;28;20533;-68